TAF.NORTH.NIGHT

13 August 2017

Forecaster

Trairat Singkhan

1708131700Z   เวลา 24.00 น.

TAF VTCC 131700Z 1318/1424 22005KT 9999 SCT030

TEMPO 1409/1413 VRB10G25KT 4000 TSRA FEW020CB BKN030=

TAF VTCT 131700Z 1318/1424 20005KT 9999 SCT030

TEMPO 1408/1413 VRB10G25KT 4000 TSRA FEW020CB BKN030=

TAF VTCH 131700Z 1318/1418 20005KT 9999 SCT030

TEMPO 1409/1413 VRB10G25KT 4000 TSRA FEW020CB BKN030=

TAF VTCN 131700Z 1318/1418 20005KT 9999 SCT025

TEMPO 1408/1413 VRB10G25KT 4000 TSRA FEW020CB BKN030=

TAF VTCL 131700Z 1318/1418 18005KT 9999 SCT025

TEMPO 1408/1413 VRB10G25KT 4000 TSRA FEW020CB BKN030=

TAF VTCP 131700Z 1318/1418 20005KT 9999 SCT025

TEMPO 1408/1413 VRB10G25KT 4000 TSRA FEW020CB BKN030=

TAF VTPT 131700Z 1318/1418 24005KT 9999 SCT025

TEMPO 1408/1413 VRB10G25KT 4000 TSRA FEW020CB BKN030=

TAF VTPM 131700Z 1318/1418 26005KT 9999 SCT025

TEMPO 1408/1413 VRB10G25KT 4000 TSRA FEW020CB BKN030=

TAF VTPP 131700Z 1318/1418 22005KT 9999 SCT025

TEMPO 1408/1413 VRB10G25KT 4000 TSRA FEW020CB BKN030=

TAF VTPB 131700Z 1318/1418 22005KT 9999 SCT025

TEMPO 1408/1413 VRB10G25KT 4000 TSRA FEW020CB BKN030=

TAF VTPO 131700Z 1318/1418 22005KT 9999 SCT025

TEMPO 1408/1413 VRB10G25KT 4000 TSRA FEW020CB BKN030=

 

1708132300Z  เวลา 06.00 น.

TAF VTCC 132300Z 1400/1506 22005KT 9999 SCT035

 TEMPO 1409/1412 VRB10G25KT 4000 TSRA FEW020CB BKN030=

TAF VTCT 132300Z 1400/1506 20005KT 9999 SCT035

 TEMPO 1408/1412 VRB10G25KT 4000 TSRA FEW020CB BKN030=

TAF VTCH 132300Z 1400/1424 22005KT 9999 SCT035

 TEMPO 1409/1412 VRB10G25KT 4000 TSRA FEW020CB BKN030=

TAF VTCN 132300Z 1400/1424 22005KT 9999 SCT035

TEMPO 1408/1412 VRB10G25KT 4000 TSRA FEW020CB BKN030=

TAF VTCL 132300Z 1400/1424 22005KT 9999 SCT035

 TEMPO 1408/1412 VRB10G25KT 4000 TSRA FEW020CB BKN030=

TAF VTCP 132300Z 1400/1424 22005KT 9999 SCT035

TEMPO 1408/1412 VRB10G25KT 4000 TSRA FEW020CB BKN030=

TAF VTPT 132300Z 1400/1424 26005KT 9999 SCT035

TEMPO 1409/1412 VRB10G25KT 4000 TSRA FEW020CB BKN030=

TAF VTPM 132300Z 1400/1424 26005KT 9999 SCT035

TEMPO 1408/1412 VRB10G25KT 4000 TSRA FEW020CB BKN030=

TAF VTPP 132300Z 1400/1424 24005KT 9999 SCT035

 TEMPO 1410/1412 VRB10G25KT 4000 TSRA FEW020CB BKN030=

TAF VTPB 132300Z 1400/1424 22005KT 9999 SCT035

TEMPO 1410/1412 VRB10G25KT 4000 TSRA FEW020CB BKN030=

TAF VTPO 132300Z 1400/1424 24005KT 9999 SCT035

 TEMPO 1409/1412 VRB10G25KT 4000 TSRA FEW020CB BKN030=